Time;durP1;ratioP1;P1;durP2;ratioP2;P2;SDS_P1;SDS_P2;PMS_P1;PMS_P2;Temp;Humidity;BMP_temperature;BMP_pressure;BME280_temperature;BME280_humidity;BME280_pressure;Samples;Min_cycle;Max_cycle;Signal;HPM_P1;HPM_P2
2021/03/12 00:00:35;;;;;;;4.13;1.30;;;;;;;5.60;100.00;99110.78;4967180;28;20240;-70
2021/03/12 00:03:17;;;;;;;3.80;1.53;;;;;;;5.64;100.00;99123.44;4946284;28;20233;-72
2021/03/12 00:05:51;;;;;;;4.00;1.63;;;;;;;5.70;100.00;99121.53;4960262;28;20239;-70
2021/03/12 00:08:17;;;;;;;5.30;1.80;;;;;;;5.76;100.00;99138.19;4975846;28;20239;-70
2021/03/12 00:10:43;;;;;;;5.00;1.77;;;;;;;5.73;100.00;99121.78;4991603;28;21005;-70
2021/03/12 00:13:11;;;;;;;6.47;1.60;;;;;;;5.72;100.00;99133.63;4991809;28;20185;-70
2021/03/12 00:15:39;;;;;;;4.00;1.60;;;;;;;5.68;100.00;99139.81;4976110;28;20248;-70
2021/03/12 00:18:05;;;;;;;4.60;1.80;;;;;;;5.69;100.00;99141.44;5010091;28;20228;-70
2021/03/12 00:20:33;;;;;;;8.37;2.50;;;;;;;5.78;100.00;99146.78;4975840;28;20686;-71
2021/03/12 00:22:58;;;;;;;5.03;2.20;;;;;;;5.93;100.00;99160.16;4975630;28;20219;-70
2021/03/12 00:25:38;;;;;;;8.53;2.40;;;;;;;5.91;100.00;99167.72;4955984;28;20233;-71
2021/03/12 00:28:05;;;;;;;6.60;2.13;;;;;;;5.87;100.00;99158.59;4962603;28;20278;-71
2021/03/12 00:30:30;;;;;;;6.60;2.43;;;;;;;5.90;100.00;99158.03;4970241;28;20226;-70
2021/03/12 00:32:58;;;;;;;6.70;2.03;;;;;;;6.01;100.00;99162.28;4995055;28;20204;-71
2021/03/12 00:35:26;;;;;;;7.53;2.37;;;;;;;5.97;100.00;99171.19;4962910;28;20355;-71
2021/03/12 00:37:54;;;;;;;6.00;2.20;;;;;;;6.08;100.00;99172.75;4963485;28;20236;-71
2021/03/12 00:40:37;;;;;;;7.50;2.33;;;;;;;6.12;100.00;99180.00;4995495;28;20181;-70
2021/03/12 00:43:03;;;;;;;7.80;2.43;;;;;;;5.98;100.00;99173.63;4979979;28;20178;-70
2021/03/12 00:45:35;;;;;;;5.40;1.63;;;;;;;5.90;100.00;99176.91;4979255;28;20229;-71
2021/03/12 00:48:08;;;;;;;7.20;2.57;;;;;;;5.89;100.00;99183.34;4964647;28;20277;-70
2021/03/12 00:50:35;;;;;;;6.40;2.47;;;;;;;5.88;100.00;99189.84;4978722;28;20224;-70
2021/03/12 00:53:01;;;;;;;8.13;2.63;;;;;;;5.87;100.00;99188.22;4978414;28;20174;-69
2021/03/12 00:55:29;;;;;;;8.13;2.33;;;;;;;5.82;100.00;99188.28;4978593;28;20234;-70
2021/03/12 00:57:57;;;;;;;7.67;2.67;;;;;;;5.80;100.00;99198.50;4995399;28;20248;-71
2021/03/12 01:00:28;;;;;;;8.50;2.60;;;;;;;5.81;100.00;99213.59;5001492;28;20639;-70
2021/03/12 01:02:58;;;;;;;5.17;2.20;;;;;;;5.72;100.00;99227.06;4944291;28;20573;-70
2021/03/12 01:05:27;;;;;;;3.20;1.27;;;;;;;5.59;100.00;99200.75;4942975;28;20233;-71
2021/03/12 01:07:57;;;;;;;3.93;1.40;;;;;;;5.55;100.00;99196.97;4975553;28;20212;-71
2021/03/12 01:10:27;;;;;;;4.33;1.10;;;;;;;5.54;100.00;99189.97;4945025;28;20229;-70
2021/03/12 01:12:52;;;;;;;2.43;1.13;;;;;;;5.54;100.00;99192.66;4958721;28;20574;-70
2021/03/12 01:15:24;;;;;;;2.83;0.97;;;;;;;5.47;100.00;99197.53;4943560;28;20177;-71
2021/03/12 01:17:52;;;;;;;3.43;1.30;;;;;;;5.46;100.00;99193.25;4944385;28;20225;-71
2021/03/12 01:20:32;;;;;;;2.90;1.00;;;;;;;5.50;100.00;99195.09;4958864;28;20192;-72
2021/03/12 01:22:58;;;;;;;3.73;0.97;;;;;;;5.57;100.00;99192.13;4943686;28;20280;-70
2021/03/12 01:25:31;;;;;;;2.47;0.97;;;;;;;5.49;100.00;99196.16;4964777;28;20225;-71
2021/03/12 01:27:59;;;;;;;2.80;1.00;;;;;;;5.44;100.00;99192.72;4963997;28;20240;-70
2021/03/12 01:30:40;;;;;;;2.67;0.90;;;;;;;5.43;100.00;99193.78;4986148;28;20174;-70
2021/03/12 01:33:27;;;;;;;1.87;0.83;;;;;;;5.35;100.00;99205.13;4984314;28;20250;-72
2021/03/12 01:35:55;;;;;;;2.73;0.90;;;;;;;5.50;100.00;99202.38;4963205;28;20221;-70
2021/03/12 01:38:21;;;;;;;2.43;0.97;;;;;;;5.43;100.00;99204.56;4978486;28;20733;-71
2021/03/12 01:40:48;;;;;;;4.87;1.10;;;;;;;5.40;100.00;99205.09;4976315;28;20348;-71
2021/03/12 01:43:14;;;;;;;2.57;1.10;;;;;;;5.41;100.00;99206.72;4961674;28;20264;-70
2021/03/12 01:45:44;;;;;;;2.80;1.50;;;;;;;5.37;100.00;99194.91;4961400;28;20329;-70
2021/03/12 01:48:13;;;;;;;3.27;1.30;;;;;;;5.42;100.00;99201.06;4978616;28;20221;-71
2021/03/12 01:50:42;;;;;;;3.90;1.30;;;;;;;5.43;100.00;99208.03;4977533;28;20318;-70
2021/03/12 01:53:12;;;;;;;3.10;1.20;;;;;;;5.26;100.00;99195.22;4962333;28;20210;-70
2021/03/12 01:55:38;;;;;;;2.33;1.30;;;;;;;5.23;100.00;99201.94;4961987;28;20698;-71
2021/03/12 01:58:06;;;;;;;5.33;1.57;;;;;;;5.18;100.00;99207.34;4993700;28;20197;-71
2021/03/12 02:00:38;;;;;;;2.17;1.50;;;;;;;5.17;100.00;99211.09;4998632;28;20247;-70
2021/03/12 02:03:19;;;;;;;1.50;1.40;;;;;;;5.19;100.00;99206.25;4944655;28;20181;-70
2021/03/12 02:05:57;;;;;;;3.63;1.60;;;;;;;5.24;100.00;99208.94;4946266;28;20232;-71
2021/03/12 02:08:23;;;;;;;4.30;1.63;;;;;;;5.26;100.00;99206.78;4974938;28;20217;-70
2021/03/12 02:10:57;;;;;;;2.37;1.80;;;;;;;5.23;100.00;99206.50;4945076;28;20236;-70
2021/03/12 02:13:51;;;;;;;2.73;1.97;;;;;;;5.20;100.00;99220.50;4958244;28;20186;-70
2021/03/12 02:16:28;;;;;;;2.27;1.70;;;;;;;5.20;100.00;99224.00;4960404;28;20726;-72
2021/03/12 02:19:02;;;;;;;3.60;2.20;;;;;;;5.13;100.00;99218.09;4943688;28;20192;-70
2021/03/12 02:21:36;;;;;;;5.67;2.20;;;;;;;5.19;100.00;99219.69;4973615;28;20232;-70
2021/03/12 02:24:26;;;;;;;8.37;2.37;;;;;;;5.36;100.00;99220.97;4963507;28;20601;-70
2021/03/12 02:27:02;;;;;;;3.27;2.40;;;;;;;5.38;100.00;99220.72;4989768;28;20225;-70
2021/03/12 02:29:32;;;;;;;3.77;2.23;;;;;;;5.41;100.00;99230.94;4989446;28;20193;-70
2021/03/12 02:32:02;;;;;;;4.70;2.60;;;;;;;5.45;100.00;99237.38;4970471;28;20247;-70
2021/03/12 02:34:35;;;;;;;5.17;2.17;;;;;;;5.39;100.00;99244.69;4977511;28;20674;-70
2021/03/12 02:37:08;;;;;;;4.57;2.13;;;;;;;5.38;100.00;99247.63;4992772;28;20294;-71
2021/03/12 02:39:38;;;;;;;5.03;2.43;;;;;;;5.40;100.00;99245.47;5009364;28;20689;-71
2021/03/12 02:42:08;;;;;;;4.77;2.80;;;;;;;5.50;100.00;99248.16;4992189;28;20612;-70
2021/03/12 02:44:40;;;;;;;5.70;2.83;;;;;;;5.42;100.00;99246.84;4978472;28;20561;-70
2021/03/12 02:47:15;;;;;;;4.90;2.10;;;;;;;5.62;100.00;99254.03;5008876;28;20228;-70
2021/03/12 02:49:45;;;;;;;5.37;2.57;;;;;;;5.59;100.00;99249.22;4993641;28;20216;-70
2021/03/12 02:52:14;;;;;;;4.60;2.67;;;;;;;5.58;100.00;99252.97;4959706;28;20232;-71
2021/03/12 02:54:39;;;;;;;6.40;2.67;;;;;;;5.54;100.00;99254.59;4977246;28;20189;-70
2021/03/12 02:57:06;;;;;;;9.03;2.83;;;;;;;5.55;100.00;99250.81;4976330;28;20729;-70
2021/03/12 02:59:34;;;;;;;6.77;2.90;;;;;;;5.64;100.00;99257.25;5008397;28;20200;-71
2021/03/12 03:02:19;;;;;;;7.30;2.70;;;;;;;5.65;100.00;99258.88;4991407;28;20239;-70
2021/03/12 03:05:04;;;;;;;7.20;2.70;;;;;;;5.73;100.00;99261.81;4992679;28;20200;-72
2021/03/12 03:07:34;;;;;;;6.40;2.90;;;;;;;5.72;100.00;99267.47;4992711;28;20290;-70
2021/03/12 03:10:03;;;;;;;7.83;3.10;;;;;;;5.79;100.00;99266.13;4944723;28;20188;-71
2021/03/12 03:12:32;;;;;;;6.00;3.73;;;;;;;5.74;100.00;99274.22;4984010;28;20564;-72
2021/03/12 03:14:59;;;;;;;6.40;3.20;;;;;;;5.74;100.00;99277.72;4960520;28;20196;-71
2021/03/12 03:17:30;;;;;;;7.17;3.27;;;;;;;5.69;100.00;99290.34;4960468;28;20231;-70
2021/03/12 03:19:55;;;;;;;8.13;3.20;;;;;;;5.79;100.00;99288.47;4945504;28;20189;-70
2021/03/12 03:22:21;;;;;;;7.07;3.63;;;;;;;5.85;100.00;99290.06;4959542;28;20224;-70
2021/03/12 03:24:48;;;;;;;8.90;3.47;;;;;;;5.88;100.00;99297.59;4960957;28;20677;-71
2021/03/12 03:27:14;;;;;;;9.50;3.53;;;;;;;6.01;100.00;99297.00;4975605;28;20244;-71
2021/03/12 03:29:42;;;;;;;10.30;3.73;;;;;;;5.94;100.00;99296.50;4976384;28;20177;-70
2021/03/12 03:32:09;;;;;;;6.70;3.50;;;;;;;5.98;100.00;99302.94;4991601;28;20216;-71
2021/03/12 03:34:35;;;;;;;9.07;3.70;;;;;;;6.07;100.00;99300.50;4976563;28;20193;-70
2021/03/12 03:37:05;;;;;;;11.40;4.13;;;;;;;5.97;100.00;99316.69;4961038;28;20229;-70
2021/03/12 03:39:31;;;;;;;8.50;3.63;;;;;;;6.01;100.00;99312.38;4958041;28;20200;-71
2021/03/12 03:41:59;;;;;;;10.17;3.67;;;;;;;6.09;100.00;99314.50;4940187;28;20221;-71
2021/03/12 03:44:26;;;;;;;6.67;3.20;;;;;;;6.07;100.00;99322.84;4941824;28;20205;-70
2021/03/12 03:46:55;;;;;;;8.53;3.50;;;;;;;6.13;100.00;99319.88;4956734;28;20235;-70
2021/03/12 03:49:25;;;;;;;7.70;3.50;;;;;;;6.10;100.00;99325.00;4926032;28;20575;-70
2021/03/12 03:51:50;;;;;;;9.43;3.43;;;;;;;6.19;100.00;99320.63;4955317;28;20284;-71
2021/03/12 03:54:24;;;;;;;10.33;3.33;;;;;;;6.20;100.00;99327.63;4942591;28;20233;-71
2021/03/12 03:56:57;;;;;;;7.87;3.03;;;;;;;6.23;100.00;99325.19;4942986;28;20902;-71
2021/03/12 03:59:27;;;;;;;9.47;2.73;;;;;;;6.28;100.00;99329.75;4949122;28;20198;-70
2021/03/12 04:01:55;;;;;;;9.93;2.90;;;;;;;6.22;100.00;99336.25;4984657;28;20267;-70
2021/03/12 04:04:24;;;;;;;4.60;2.43;;;;;;;6.29;100.00;99339.47;5010726;28;20181;-69
2021/03/12 04:06:49;;;;;;;6.70;2.63;;;;;;;6.27;100.00;99328.16;4963148;28;20224;-70
2021/03/12 04:09:20;;;;;;;5.73;2.80;;;;;;;6.34;100.00;99334.06;4997498;28;20256;-71
2021/03/12 04:11:48;;;;;;;6.47;2.37;;;;;;;6.36;100.00;99338.06;4988394;28;20712;-71
2021/03/12 04:14:24;;;;;;;8.23;2.40;;;;;;;6.39;100.00;99347.50;4976626;28;20556;-71
2021/03/12 04:16:53;;;;;;;9.10;2.20;;;;;;;6.19;100.00;99343.00;4942835;28;20640;-71
2021/03/12 04:19:22;;;;;;;6.70;2.60;;;;;;;6.19;100.00;99350.28;4977255;28;20265;-71
2021/03/12 04:21:51;;;;;;;7.67;2.70;;;;;;;6.15;100.00;99352.75;4971626;28;20217;-70
2021/03/12 04:24:18;;;;;;;6.93;2.47;;;;;;;6.17;100.00;99365.91;4979871;28;20188;-71
2021/03/12 04:26:47;;;;;;;5.43;2.60;;;;;;;6.25;100.00;99370.75;4977359;28;20221;-71
2021/03/12 04:29:21;;;;;;;8.27;2.70;;;;;;;6.23;100.00;99381.00;4973020;28;20240;-71
2021/03/12 04:31:49;;;;;;;7.23;2.77;;;;;;;6.22;100.00;99379.38;4942954;28;20245;-71
2021/03/12 04:34:15;;;;;;;6.03;2.67;;;;;;;6.36;100.00;99377.72;4977677;28;20580;-70
2021/03/12 04:36:44;;;;;;;5.40;2.33;;;;;;;6.31;100.00;99389.31;4966939;28;20307;-70
2021/03/12 04:39:11;;;;;;;11.20;3.00;;;;;;;6.34;100.00;99387.97;4971470;28;20671;-70
2021/03/12 04:41:36;;;;;;;5.27;2.57;;;;;;;6.26;100.00;99391.22;4960682;28;20237;-71
2021/03/12 04:44:06;;;;;;;9.27;3.03;;;;;;;6.24;100.00;99396.09;4984486;28;20182;-71
2021/03/12 04:46:37;;;;;;;6.83;2.40;;;;;;;6.24;100.00;99401.47;4960035;28;20233;-71
2021/03/12 04:49:03;;;;;;;8.17;2.93;;;;;;;6.25;100.00;99403.09;4997234;28;20208;-70
2021/03/12 04:51:29;;;;;;;5.80;2.57;;;;;;;6.17;100.00;99398.25;4992104;28;20235;-73
2021/03/12 04:53:59;;;;;;;8.33;2.57;;;;;;;6.19;100.00;99402.31;5009858;28;20185;-70
2021/03/12 04:56:24;;;;;;;8.13;3.07;;;;;;;6.15;100.00;99408.50;4993978;28;20295;-71
2021/03/12 04:58:53;;;;;;;5.33;3.00;;;;;;;6.18;100.00;99405.28;4970510;28;20549;-71
2021/03/12 05:01:25;;;;;;;6.87;3.00;;;;;;;6.13;100.00;99418.75;4985396;28;20224;-72
2021/03/12 05:03:53;;;;;;;6.20;2.67;;;;;;;6.04;100.00;99414.22;4995423;28;20166;-70
2021/03/12 05:06:18;;;;;;;7.47;3.20;;;;;;;6.09;100.00;99427.69;4978606;28;20235;-70
2021/03/12 05:08:55;;;;;;;6.30;2.47;;;;;;;6.05;100.00;99427.41;5011531;28;20893;-71
2021/03/12 05:11:25;;;;;;;7.87;2.93;;;;;;;6.06;100.00;99433.59;4979389;28;20282;-70
2021/03/12 05:14:02;;;;;;;5.57;2.77;;;;;;;6.09;100.00;99433.88;5010824;28;20662;-70
2021/03/12 05:16:35;;;;;;;7.83;2.97;;;;;;;6.02;100.00;99444.13;4978881;28;20224;-70
2021/03/12 05:19:05;;;;;;;6.07;2.93;;;;;;;5.96;100.00;99447.91;4978726;28;20176;-70
2021/03/12 05:21:31;;;;;;;9.70;3.43;;;;;;;6.03;100.00;99442.25;5010624;28;20220;-70
2021/03/12 05:24:03;;;;;;;6.20;2.90;;;;;;;5.96;100.00;99447.91;4978267;28;20177;-70
2021/03/12 05:26:35;;;;;;;4.53;2.73;;;;;;;5.97;100.00;99452.22;4994192;28;20237;-70
2021/03/12 05:29:01;;;;;;;6.33;2.50;;;;;;;5.91;100.00;99457.88;4987156;28;20201;-70
2021/03/12 05:31:32;;;;;;;5.93;2.80;;;;;;;5.96;100.00;99450.59;4996728;28;20724;-70
2021/03/12 05:33:57;;;;;;;5.97;2.67;;;;;;;5.98;100.00;99464.59;4994132;28;20189;-70
2021/03/12 05:36:28;;;;;;;6.47;3.17;;;;;;;6.07;100.00;99462.97;4993420;28;20311;-70
2021/03/12 05:38:56;;;;;;;6.20;2.80;;;;;;;6.13;100.00;99471.84;4962837;28;20189;-75
2021/03/12 05:41:24;;;;;;;17.43;10.27;;;;;;;6.18;100.00;99464.56;4982999;28;20217;-70
2021/03/12 05:43:50;;;;;;;14.43;7.30;;;;;;;6.16;100.00;99461.34;4980204;28;20646;-71
2021/03/12 05:46:16;;;;;;;8.40;2.67;;;;;;;6.09;100.00;99481.56;4977051;28;20347;-70
2021/03/12 05:48:43;;;;;;;6.23;2.30;;;;;;;6.06;100.00;99472.13;5010832;28;20217;-70
2021/03/12 05:51:10;;;;;;;7.70;2.87;;;;;;;6.06;100.00;99485.59;4993938;28;20225;-70
2021/03/12 05:53:41;;;;;;;5.97;2.50;;;;;;;6.06;100.00;99491.00;4979637;28;20178;-71
2021/03/12 05:56:12;;;;;;;6.27;2.27;;;;;;;6.01;100.00;99485.63;4959297;28;20576;-70
2021/03/12 05:58:52;;;;;;;7.03;2.90;;;;;;;6.03;100.00;99496.13;4994737;28;20236;-70
2021/03/12 06:01:20;;;;;;;7.53;2.40;;;;;;;6.07;100.00;99499.91;4945729;28;20244;-71
2021/03/12 06:03:48;;;;;;;7.70;2.60;;;;;;;6.08;100.00;99501.50;4977525;28;20193;-71
2021/03/12 06:06:16;;;;;;;5.83;2.03;;;;;;;6.07;100.00;99506.09;4985970;28;20292;-71
2021/03/12 06:08:43;;;;;;;4.90;1.97;;;;;;;6.21;100.00;99510.66;4958302;28;20228;-70
2021/03/12 06:11:11;;;;;;;6.30;2.23;;;;;;;6.20;100.00;99519.00;4941927;28;20244;-71
2021/03/12 06:13:50;;;;;;;6.70;2.30;;;;;;;6.34;100.00;99522.78;4973664;28;20726;-71
2021/03/12 06:16:25;;;;;;;6.47;1.90;;;;;;;6.25;100.00;99521.72;4944162;28;20229;-70
2021/03/12 06:19:21;;;;;;;4.83;2.10;;;;;;;6.26;100.00;99542.19;4943047;28;20579;-71
2021/03/12 06:22:11;;;;;;;10.50;2.10;;;;;;;6.31;100.00;99539.50;4973015;28;20233;-71
2021/03/12 06:24:47;;;;;;;6.73;2.03;;;;;;;6.28;100.00;99540.03;4944992;28;20186;-71
2021/03/12 06:27:35;;;;;;;3.07;1.70;;;;;;;6.27;100.00;99547.31;4961947;28;20825;-69
2021/03/12 06:30:27;;;;;;;4.43;2.10;;;;;;;6.20;100.00;99548.66;5001830;28;20319;-70
2021/03/12 06:33:28;;;;;;;7.13;2.27;;;;;;;6.25;100.00;99548.66;4995960;28;20196;-71
2021/03/12 06:36:28;;;;;;;6.83;2.60;;;;;;;6.30;100.00;99554.03;4983767;28;20888;-70
2021/03/12 06:39:33;;;;;;;5.23;2.47;;;;;;;6.25;100.00;99557.56;4970699;28;20592;-71
2021/03/12 06:42:20;;;;;;;7.00;2.90;;;;;;;6.25;100.00;99564.84;4973534;28;20243;-71
2021/03/12 06:44:51;;;;;;;7.00;2.80;;;;;;;6.23;100.00;99567.00;5010211;28;20176;-70
2021/03/12 06:47:21;;;;;;;5.90;2.37;;;;;;;6.28;100.00;99572.38;5003971;28;20262;-71
2021/03/12 06:49:57;;;;;;;6.93;2.40;;;;;;;6.23;100.00;99577.78;5035886;28;20181;-69
2021/03/12 06:52:38;;;;;;;6.47;2.90;;;;;;;6.29;100.00;99582.09;5001070;28;20259;-70
2021/03/12 06:55:16;;;;;;;9.10;3.13;;;;;;;6.34;100.00;99584.78;4998370;28;20280;-71
2021/03/12 06:58:07;;;;;;;6.07;2.90;;;;;;;6.45;100.00;99583.69;5010604;28;20232;-69
2021/03/12 07:00:33;;;;;;;5.93;2.40;;;;;;;6.32;100.00;99590.44;4971923;28;20305;-70
2021/03/12 07:03:27;;;;;;;5.20;2.43;;;;;;;6.43;100.00;99592.06;4942706;28;20194;-70
2021/03/12 07:06:17;;;;;;;6.90;3.00;;;;;;;6.55;100.00;99589.88;4973411;28;20226;-70
2021/03/12 07:08:48;;;;;;;6.77;2.73;;;;;;;6.50;100.00;99600.66;4943972;28;20213;-70
2021/03/12 07:11:30;;;;;;;6.23;2.80;;;;;;;6.50;100.00;99602.56;4961959;28;20236;-70
2021/03/12 07:14:15;;;;;;;6.70;3.13;;;;;;;6.78;100.00;99617.09;4992110;28;20323;-70
2021/03/12 07:16:44;;;;;;;10.17;4.50;;;;;;;6.72;100.00;99611.94;4942002;28;20320;-71
2021/03/12 07:19:15;;;;;;;6.77;2.83;;;;;;;6.72;100.00;99626.28;4940579;28;20174;-70
2021/03/12 07:21:41;;;;;;;6.20;2.50;;;;;;;6.63;100.00;99619.81;4964020;28;20224;-70
2021/03/12 07:24:13;;;;;;;6.43;2.60;;;;;;;6.56;100.00;99613.88;4926051;28;20221;-70
2021/03/12 07:27:08;;;;;;;14.87;7.97;;;;;;;6.57;100.00;99623.59;4964441;28;20746;-70
2021/03/12 07:29:51;;;;;;;11.93;7.53;;;;;;;6.63;100.00;99627.91;4947320;28;20284;-70
2021/03/12 07:32:29;;;;;;;8.80;2.50;;;;;;;6.60;100.00;99623.03;4936708;28;20222;-70
2021/03/12 07:35:03;;;;;;;6.13;2.47;;;;;;;6.69;100.00;99642.19;4949560;28;20276;-71
2021/03/12 07:37:47;;;;;;;8.80;2.20;;;;;;;6.81;100.00;99640.81;4946953;28;20232;-70
2021/03/12 07:40:18;;;;;;;7.27;2.43;;;;;;;6.80;100.00;99643.78;4976805;28;20194;-70
2021/03/12 07:42:44;;;;;;;6.20;2.80;;;;;;;6.94;100.00;99637.53;4945238;28;20186;-69
2021/03/12 07:45:39;;;;;;;7.23;2.23;;;;;;;6.85;100.00;99652.69;4964798;28;20300;-69
2021/03/12 07:48:11;;;;;;;7.50;2.77;;;;;;;6.99;100.00;99651.03;4948214;28;20225;-69
2021/03/12 07:51:06;;;;;;;8.20;2.40;;;;;;;6.87;100.00;99653.22;4993609;28;20247;-69
2021/03/12 07:53:54;;;;;;;6.37;1.77;;;;;;;6.86;100.00;99646.19;4994174;28;20185;-69
2021/03/12 07:56:44;;;;;;;8.93;1.80;;;;;;;6.86;99.45;99650.78;4963588;28;20237;-69
2021/03/12 07:59:49;;;;;;;5.93;2.20;;;;;;;6.92;98.79;99645.09;4986356;28;20205;-70
2021/03/12 08:03:00;;;;;;;3.57;1.60;;;;;;;6.93;98.81;99652.13;4975385;28;20292;-70
2021/03/12 08:05:51;;;;;;;5.20;2.00;;;;;;;7.09;98.30;99667.22;4974490;28;20229;-68
2021/03/12 08:08:32;;;;;;;6.00;3.17;;;;;;;6.97;97.60;99658.59;4959876;28;20237;-70
2021/03/12 08:11:33;;;;;;;10.67;2.20;;;;;;;6.96;98.01;99659.69;4942236;28;20241;-69
2021/03/12 08:14:17;;;;;;;8.30;1.80;;;;;;;7.18;97.35;99673.66;4957608;28;20190;-69
2021/03/12 08:16:57;;;;;;;5.63;1.67;;;;;;;7.11;95.84;99692.06;4940600;28;20233;-70
2021/03/12 08:19:29;;;;;;;6.47;2.00;;;;;;;6.97;97.61;99669.38;4976583;28;20188;-69
2021/03/12 08:22:42;;;;;;;7.87;1.83;;;;;;;7.20;98.09;99663.38;4975299;28;20221;-69
2021/03/12 08:25:41;;;;;;;3.57;1.80;;;;;;;7.23;95.51;99673.66;4963918;28;20225;-72
2021/03/12 08:28:45;;;;;;;7.20;1.90;;;;;;;7.22;95.54;99663.94;4983938;28;20243;-70
2021/03/12 08:31:43;;;;;;;6.23;1.93;;;;;;;7.51;96.08;99671.94;4996033;28;20213;-69
2021/03/12 08:34:35;;;;;;;7.77;2.10;;;;;;;7.97;94.34;99667.94;4988823;28;20188;-70
2021/03/12 08:37:25;;;;;;;8.97;2.20;;;;;;;7.73;92.50;99677.78;5027539;28;20275;-70
2021/03/12 08:40:13;;;;;;;7.10;2.07;;;;;;;8.03;93.00;99676.50;4975363;28;20194;-69
2021/03/12 08:42:58;;;;;;;5.57;1.93;;;;;;;8.00;91.87;99680.88;4973769;28;20193;-69
2021/03/12 08:45:55;;;;;;;9.83;2.17;;;;;;;8.10;90.83;99674.34;4948041;28;20226;-70
2021/03/12 08:48:33;;;;;;;4.87;1.90;;;;;;;7.76;89.49;99686.13;4942608;28;20702;-69
2021/03/12 08:51:08;;;;;;;6.67;2.10;;;;;;;7.79;89.11;99676.66;4955843;28;20268;-70
2021/03/12 08:54:03;;;;;;;8.80;2.30;;;;;;;7.96;89.74;99682.50;4942764;28;20190;-70
2021/03/12 08:56:37;;;;;;;5.40;2.43;;;;;;;7.68;90.27;99683.19;4960309;28;20230;-70
2021/03/12 08:59:05;;;;;;;8.07;2.83;;;;;;;7.86;90.40;99694.19;4941000;28;20179;-71
2021/03/12 09:01:57;;;;;;;9.27;2.50;;;;;;;7.92;89.48;99689.56;4940662;28;20221;-70
2021/03/12 09:04:35;;;;;;;4.83;2.63;;;;;;;8.08;90.33;99692.72;4927707;28;20556;-71
2021/03/12 09:07:22;;;;;;;6.33;2.50;;;;;;;7.82;90.18;99701.25;4929972;28;20614;-70
2021/03/12 09:10:27;;;;;;;7.63;2.73;;;;;;;7.70;90.32;99689.13;4971948;28;20546;-70
2021/03/12 09:13:20;;;;;;;9.43;3.10;;;;;;;8.04;91.68;99688.16;4940839;28;20672;-70
2021/03/12 09:15:49;;;;;;;8.60;3.40;;;;;;;8.02;90.88;99694.91;4940313;28;20241;-70
2021/03/12 09:18:19;;;;;;;7.07;3.40;;;;;;;8.27;87.66;99677.47;4925830;28;20206;-70
2021/03/12 09:20:57;;;;;;;6.80;3.30;;;;;;;8.55;89.52;99696.47;4940415;28;20319;-71
2021/03/12 09:23:44;;;;;;;7.53;3.70;;;;;;;8.37;88.17;99680.13;4926707;28;20277;-70
2021/03/12 09:26:12;;;;;;;8.50;4.10;;;;;;;8.23;87.28;99699.97;4940170;28;20309;-72
2021/03/12 09:28:45;;;;;;;5.73;3.23;;;;;;;8.28;88.26;99683.72;4948632;28;20750;-71
2021/03/12 09:31:17;;;;;;;6.83;3.50;;;;;;;8.03;88.99;99691.13;4952219;28;20257;-69
2021/03/12 09:33:53;;;;;;;6.03;3.23;;;;;;;7.85;87.19;99689.06;4925841;28;20190;-70
2021/03/12 09:36:42;;;;;;;6.70;3.10;;;;;;;7.90;87.35;99703.34;4927831;28;20711;-70
2021/03/12 09:39:26;;;;;;;7.83;3.30;;;;;;;7.99;87.25;99699.00;4928509;28;20679;-69
2021/03/12 09:41:59;;;;;;;5.00;2.77;;;;;;;8.06;86.18;99707.63;4939532;28;20691;-70
2021/03/12 09:44:26;;;;;;;11.67;3.37;;;;;;;8.07;86.20;99699.19;4958035;28;20193;-69
2021/03/12 09:47:08;;;;;;;8.60;3.30;;;;;;;8.30;85.36;99698.56;4954188;28;20225;-70
2021/03/12 09:49:43;;;;;;;8.03;3.50;;;;;;;8.51;84.10;99700.03;4925094;28;20210;-70
2021/03/12 09:52:19;;;;;;;7.13;3.40;;;;;;;8.71;83.23;99691.75;4923357;28;20978;-70
2021/03/12 09:54:51;;;;;;;7.20;2.60;;;;;;;9.04;81.63;99695.22;4926123;28;20182;-69
2021/03/12 09:57:18;;;;;;;5.67;2.50;;;;;;;8.98;80.78;99673.91;4923057;28;20326;-70
2021/03/12 09:59:46;;;;;;;9.37;2.67;;;;;;;8.96;79.60;99686.91;4955902;28;20254;-70
2021/03/12 10:02:23;;;;;;;7.33;2.77;;;;;;;9.10;78.05;99672.44;4923989;28;20229;-71
2021/03/12 10:05:05;;;;;;;6.03;2.80;;;;;;;9.03;79.92;99676.53;4957064;28;20715;-69
2021/03/12 10:08:06;;;;;;;7.87;2.47;;;;;;;8.99;78.61;99670.91;4947256;28;20253;-70
2021/03/12 10:10:57;;;;;;;4.70;2.50;;;;;;;8.72;79.64;99671.69;4957070;28;20236;-72
2021/03/12 10:13:29;;;;;;;5.93;2.50;;;;;;;8.77;79.73;99677.88;4939741;28;20190;-70
2021/03/12 10:16:13;;;;;;;7.97;2.40;;;;;;;8.55;80.63;99665.88;4970754;28;20249;-69
2021/03/12 10:19:04;;;;;;;8.43;2.50;;;;;;;8.83;79.25;99665.94;4942116;28;20194;-69
2021/03/12 10:21:34;;;;;;;7.33;3.60;;;;;;;9.29;78.67;99668.69;4923671;28;20708;-71
2021/03/12 10:23:59;;;;;;;9.60;4.83;;;;;;;9.33;75.04;99677.84;4938660;28;20641;-70
2021/03/12 10:26:25;;;;;;;5.83;3.50;;;;;;;9.19;75.51;99676.09;4965628;28;20232;-69
2021/03/12 10:28:54;;;;;;;4.20;2.40;;;;;;;9.52;72.80;99658.94;4958208;28;20276;-69
2021/03/12 10:31:19;;;;;;;6.20;1.93;;;;;;;9.71;71.07;99676.88;4942365;28;20232;-70
2021/03/12 10:33:48;;;;;;;5.43;3.00;;;;;;;9.70;67.78;99651.63;4957504;28;20194;-70
2021/03/12 10:36:16;;;;;;;6.10;2.93;;;;;;;9.20;70.14;99664.19;4973340;28;20383;-70
2021/03/12 10:38:47;;;;;;;5.23;2.10;;;;;;;9.32;71.11;99665.41;4926233;28;20204;-70
2021/03/12 10:41:20;;;;;;;3.57;1.63;;;;;;;8.97;70.74;99673.09;4974221;28;20225;-70
2021/03/12 10:43:59;;;;;;;5.43;1.80;;;;;;;8.88;71.19;99655.84;4973360;28;20818;-69
2021/03/12 10:46:27;;;;;;;6.27;2.30;;;;;;;8.96;70.97;99668.75;4992113;28;20229;-69
2021/03/12 10:48:54;;;;;;;4.03;1.70;;;;;;;8.88;69.48;99653.16;4991945;28;20218;-69
2021/03/12 10:51:22;;;;;;;7.63;1.53;;;;;;;9.08;68.22;99663.75;4958992;28;20253;-69
2021/03/12 10:53:55;;;;;;;4.13;1.40;;;;;;;9.19;66.92;99664.47;4941412;28;20240;-70
2021/03/12 10:56:25;;;;;;;4.83;1.90;;;;;;;9.52;64.18;99648.09;4956980;28;20241;-69
2021/03/12 10:58:52;;;;;;;4.77;1.90;;;;;;;9.67;63.54;99641.38;4957881;28;20280;-69
2021/03/12 11:01:26;;;;;;;4.63;1.47;;;;;;;9.62;64.17;99655.00;4972720;28;20225;-70
2021/03/12 11:03:58;;;;;;;4.10;1.67;;;;;;;9.51;64.49;99657.34;4973744;28;20181;-69
2021/03/12 11:06:37;;;;;;;4.33;1.57;;;;;;;9.59;64.20;99641.22;4941384;28;20308;-69
2021/03/12 11:09:09;;;;;;;6.57;1.70;;;;;;;9.47;65.51;99656.25;4974259;28;20343;-69
2021/03/12 11:11:36;;;;;;;5.90;1.83;;;;;;;9.87;64.78;99646.53;4956980;28;20309;-70
2021/03/12 11:14:04;;;;;;;6.40;1.80;;;;;;;10.17;64.02;99651.56;4940954;28;20599;-70
2021/03/12 11:16:29;;;;;;;3.77;1.53;;;;;;;9.89;62.13;99654.38;4940983;28;20229;-69
2021/03/12 11:18:55;;;;;;;4.43;1.63;;;;;;;9.98;61.36;99650.72;4957641;28;20255;-69
2021/03/12 11:21:20;;;;;;;5.90;1.70;;;;;;;10.02;60.24;99654.50;4956465;28;20757;-70
2021/03/12 11:23:46;;;;;;;4.30;1.30;;;;;;;9.98;59.54;99656.16;4940896;28;20186;-70
2021/03/12 11:26:16;;;;;;;5.90;1.83;;;;;;;9.91;57.83;99653.03;4940822;28;20241;-70
2021/03/12 11:28:44;;;;;;;5.60;1.37;;;;;;;9.82;58.23;99652.03;4941562;28;20219;-70
2021/03/12 11:31:12;;;;;;;3.47;1.70;;;;;;;9.83;58.78;99650.91;4972628;28;20491;-69
2021/03/12 11:33:38;;;;;;;3.93;1.37;;;;;;;9.65;59.40;99654.44;4957282;28;20197;-70
2021/03/12 11:36:05;;;;;;;4.30;1.40;;;;;;;9.61;60.32;99664.25;4956810;28;20225;-69
2021/03/12 11:38:31;;;;;;;2.90;1.50;;;;;;;9.69;59.33;99666.31;4957346;28;20197;-70
2021/03/12 11:40:59;;;;;;;4.77;1.60;;;;;;;9.60;59.32;99662.63;4956215;28;20228;-70
2021/03/12 11:43:30;;;;;;;7.40;1.57;;;;;;;9.78;60.09;99666.44;4956559;28;20185;-69
2021/03/12 11:45:58;;;;;;;5.20;1.30;;;;;;;9.76;59.53;99661.34;4972601;28;20331;-69
2021/03/12 11:48:23;;;;;;;3.80;1.50;;;;;;;9.63;58.73;99651.19;4975717;28;20276;-69
2021/03/12 11:50:49;;;;;;;6.97;1.57;;;;;;;9.82;58.70;99660.16;4972739;28;20591;-70
2021/03/12 11:53:15;;;;;;;3.80;1.00;;;;;;;9.53;58.69;99649.72;4955971;28;20229;-70
2021/03/12 11:55:43;;;;;;;5.13;1.70;;;;;;;9.88;58.89;99652.78;4956461;28;20225;-69
2021/03/12 11:58:10;;;;;;;5.07;1.80;;;;;;;10.01;59.83;99655.59;4973390;28;20280;-69
2021/03/12 12:00:38;;;;;;;5.57;1.50;;;;;;;9.67;59.97;99641.38;4957072;28;20583;-70
2021/03/12 12:03:06;;;;;;;5.67;1.63;;;;;;;9.49;60.75;99638.63;4941233;28;20194;-70
2021/03/12 12:05:34;;;;;;;5.77;1.67;;;;;;;9.53;60.46;99650.50;4972849;28;20221;-70
2021/03/12 12:08:02;;;;;;;8.70;1.63;;;;;;;9.67;60.98;99656.84;4990634;28;20690;-70